Alton, Illinois
Current Conditions -  °F | °C
As of 7:50 AM on Friday 31 Oct 2014 (Local Time) from KALN Reporting Station
Overcast Overcast  
Wind Chill: 39°   Ceiling: 3100
Heat Index: 46°   Visibility: 10mi
Dew Point: 32°   Wind: 18mph
Humidity: 57%   Direction: 330°NNW
Pressure: 30.19"   Gusts: 26mph
Location:  38.89°N, 90.18°W
Report Text: KALN 311250Z 33016G23KT 10SM OVC031 08/00 A3019
Loading
Personal Weather Stations






























Interactive Weather Map
Tropical Storm Tracking
New forecast layout! Learn more

10-Day Weather Forecast

Advertisements
Track Severe Weather on mobile